createdAt,value
2023-02-22T00:00:08.700Z,100339.31
2023-02-22T00:02:35.042Z,100335.72
2023-02-22T00:05:01.422Z,100341.69
2023-02-22T00:07:27.739Z,100334.19
2023-02-22T00:09:54.065Z,100339.28
2023-02-22T00:15:04.390Z,100335.38
2023-02-22T00:17:30.700Z,100341.72
2023-02-22T00:19:57.043Z,100331.78
2023-02-22T00:22:23.359Z,100342.50
2023-02-22T00:24:49.735Z,100335.00
2023-02-22T00:30:00.126Z,100343.72
2023-02-22T00:32:26.553Z,100339.75
2023-02-22T00:34:52.917Z,100355.25
2023-02-22T00:37:19.280Z,100348.06
2023-02-22T00:39:45.601Z,100358.00
2023-02-22T00:45:05.969Z,100361.19
2023-02-22T00:47:32.343Z,100357.22
2023-02-22T00:49:58.664Z,100369.16
2023-02-22T00:52:24.975Z,100370.31
2023-02-22T00:54:51.301Z,100371.53
2023-02-22T01:00:01.676Z,100375.91
2023-02-22T01:02:28.023Z,100380.25
2023-02-22T01:04:54.576Z,100383.47
2023-02-22T01:07:23.781Z,100381.47
2023-02-22T01:09:50.095Z,100391.78
2023-02-22T01:12:16.502Z,100396.56
2023-02-22T01:14:45.599Z,100391.81
2023-02-22T01:17:11.944Z,100404.50
2023-02-22T01:19:38.293Z,100397.75
2023-02-22T01:22:04.640Z,100407.28
2023-02-22T01:24:30.995Z,100408.84
2023-02-22T01:26:57.326Z,100412.88
2023-02-22T01:29:23.645Z,100420.41
2023-02-22T01:31:49.984Z,100419.22
2023-02-22T01:34:16.281Z,100427.94
2023-02-22T01:36:42.579Z,100430.34
2023-02-22T01:39:08.927Z,100430.72
2023-02-22T01:41:35.288Z,100427.56
2023-02-22T01:44:01.625Z,100429.13
2023-02-22T01:46:30.735Z,100429.53
2023-02-22T01:48:57.064Z,100429.13
2023-02-22T01:51:23.384Z,100425.97
2023-02-22T01:53:52.499Z,100433.50
2023-02-22T01:56:18.817Z,100427.56
2023-02-22T01:58:45.109Z,100437.47
2023-02-22T02:01:11.461Z,100428.38
2023-02-22T02:03:40.640Z,100439.88
2023-02-22T02:06:06.959Z,100437.88
2023-02-22T02:08:33.254Z,100437.91
2023-02-22T02:10:59.581Z,100436.69
2023-02-22T02:13:28.694Z,100434.31
2023-02-22T02:15:55.120Z,100443.84
2023-02-22T02:18:21.465Z,100447.03
2023-02-22T02:20:47.749Z,100439.47
2023-02-22T02:23:14.104Z,100442.25
2023-02-22T02:25:43.205Z,100452.19
2023-02-22T02:28:09.539Z,100446.22
2023-02-22T02:33:22.563Z,100451.41
2023-02-22T02:35:48.862Z,100457.34
2023-02-22T02:38:15.185Z,100454.97
2023-02-22T02:40:41.502Z,100452.59
2023-02-22T02:43:10.602Z,100462.91
2023-02-22T02:48:20.657Z,100458.94
2023-02-22T02:50:49.740Z,100468.88
2023-02-22T02:53:16.095Z,100468.88
2023-02-22T02:55:45.191Z,100468.88
2023-02-22T02:58:11.501Z,100474.44
2023-02-22T03:03:34.772Z,100478.41
2023-02-22T03:06:01.070Z,100476.81
2023-02-22T03:08:30.164Z,100486.75
2023-02-22T03:10:56.487Z,100484.72
2023-02-22T03:13:25.583Z,100483.19
2023-02-22T03:18:48.793Z,100496.25
2023-02-22T03:21:15.497Z,100491.13
2023-02-22T03:23:44.733Z,100498.25
2023-02-22T03:26:11.048Z,100501.81
2023-02-22T03:28:37.343Z,100506.56
2023-02-22T03:34:03.040Z,100502.63
2023-02-22T03:36:29.352Z,100505.41
2023-02-22T03:38:58.474Z,100509.34
2023-02-22T03:41:24.773Z,100512.13
2023-02-22T03:43:51.106Z,100507.38
2023-02-22T03:49:13.916Z,100511.75
2023-02-22T03:51:43.026Z,100519.69
2023-02-22T03:54:09.367Z,100518.50
2023-02-22T03:56:38.507Z,100522.88
2023-02-22T03:59:04.841Z,100526.06
2023-02-22T04:04:27.879Z,100533.22
2023-02-22T04:06:57.068Z,100530.44
2023-02-22T04:09:23.370Z,100532.00
2023-02-22T04:11:52.466Z,100538.78
2023-02-22T04:14:18.792Z,100538.75
2023-02-22T04:19:31.667Z,100542.72
2023-02-22T04:22:00.760Z,100549.47
2023-02-22T04:24:28.047Z,100545.13
2023-02-22T04:26:58.702Z,100558.22
2023-02-22T04:29:27.816Z,100559.41
2023-02-22T04:34:47.986Z,100566.97
2023-02-22T04:37:14.294Z,100566.56
2023-02-22T04:39:40.626Z,100568.16
2023-02-22T04:42:06.925Z,100568.53
2023-02-22T04:44:33.237Z,100569.34
2023-02-22T04:49:48.968Z,100563.00
2023-02-22T04:52:17.048Z,100562.97
2023-02-22T04:54:46.162Z,100566.97
2023-02-22T04:57:12.456Z,100563.81
2023-02-22T04:59:41.559Z,100573.72
2023-02-22T05:04:51.615Z,100577.28
2023-02-22T05:07:17.933Z,100577.28
2023-02-22T05:09:47.084Z,100577.69
2023-02-22T05:12:13.398Z,100584.03
2023-02-22T05:14:39.698Z,100582.03
2023-02-22T05:20:02.778Z,100586.44
2023-02-22T05:22:29.123Z,100589.22
2023-02-22T05:24:55.408Z,100587.59
2023-02-22T05:27:21.681Z,100587.22
2023-02-22T05:29:50.809Z,100602.28
2023-02-22T05:35:00.874Z,100599.94
2023-02-22T05:37:29.967Z,100604.28
2023-02-22T05:39:59.075Z,100609.06
2023-02-22T05:42:28.180Z,100603.91
2023-02-22T05:44:54.479Z,100607.47
2023-02-22T05:50:17.553Z,100613.00
2023-02-22T05:52:43.901Z,100616.63
2023-02-22T05:55:10.205Z,100617.78
2023-02-22T05:57:39.571Z,100625.72
2023-02-22T06:00:05.880Z,100632.47
2023-02-22T06:05:18.683Z,100626.53
2023-02-22T06:07:47.796Z,100641.19
2023-02-22T06:10:14.080Z,100644.41
2023-02-22T06:12:43.170Z,100640.03
2023-02-22T06:15:09.523Z,100642.41
2023-02-22T06:20:25.094Z,100649.56
2023-02-22T06:22:51.420Z,100652.34
2023-02-22T06:25:17.729Z,100658.69
2023-02-22T06:27:44.055Z,100665.03
2023-02-22T06:30:12.283Z,100668.63
2023-02-22T06:35:36.151Z,100685.72
2023-02-22T06:38:02.468Z,100676.97
2023-02-22T06:40:28.781Z,100691.28
2023-02-22T06:42:55.161Z,100688.50
2023-02-22T06:45:21.490Z,100692.06
2023-02-22T06:50:44.362Z,100698.41
2023-02-22T06:53:10.708Z,100700.41
2023-02-22T06:55:37.187Z,100694.44
2023-02-22T06:58:04.562Z,100694.44
2023-02-22T07:00:31.077Z,100695.63
2023-02-22T07:05:52.395Z,100698.41
2023-02-22T07:08:20.022Z,100698.00
2023-02-22T07:10:47.544Z,100704.78
2023-02-22T07:13:14.303Z,100707.16
2023-02-22T07:15:43.473Z,100721.84
2023-02-22T07:21:06.782Z,100721.84
2023-02-22T07:23:34.098Z,100720.25
2023-02-22T07:26:01.374Z,100717.47
2023-02-22T07:28:27.804Z,100717.06
2023-02-22T07:30:54.228Z,100713.13
2023-02-22T07:33:22.497Z,100718.25
2023-02-22T07:35:51.665Z,100710.72
2023-02-22T07:38:18.093Z,100722.25
2023-02-22T07:40:44.583Z,100721.03
2023-02-22T07:43:12.062Z,100723.81
2023-02-22T07:45:40.577Z,100720.25
2023-02-22T07:48:09.002Z,100724.63
2023-02-22T07:50:37.412Z,100722.25
2023-02-22T07:53:05.808Z,100720.25
2023-02-22T07:55:34.196Z,100725.41
2023-02-22T07:58:02.638Z,100717.84
2023-02-22T08:00:31.032Z,100725.00
2023-02-22T08:02:59.449Z,100724.22
2023-02-22T08:05:27.853Z,100727.00
2023-02-22T08:07:56.140Z,100721.84
2023-02-22T08:10:24.431Z,100727.41
2023-02-22T08:12:51.922Z,100721.03
2023-02-22T08:15:20.197Z,100734.16
2023-02-22T08:17:46.734Z,100725.03
2023-02-22T08:20:14.261Z,100733.38
2023-02-22T08:22:40.819Z,100735.34
2023-02-22T08:25:08.470Z,100738.53
2023-02-22T08:27:35.059Z,100746.88
2023-02-22T08:30:03.283Z,100737.75
2023-02-22T08:32:29.997Z,100743.69
2023-02-22T08:34:57.486Z,100741.69
2023-02-22T08:37:23.987Z,100747.66
2023-02-22T08:39:50.483Z,100745.25
2023-02-22T08:42:16.979Z,100745.28
2023-02-22T08:44:44.454Z,100743.69
2023-02-22T08:47:10.960Z,100746.47
2023-02-22T08:49:37.540Z,100751.63
2023-02-22T08:52:04.023Z,100748.06
2023-02-22T08:54:30.512Z,100754.81
2023-02-22T08:56:57.010Z,100754.44
2023-02-22T08:59:23.504Z,100754.03
2023-02-22T09:01:51.143Z,100759.56
2023-02-22T09:04:17.643Z,100766.47
2023-02-22T09:09:38.977Z,100774.78
2023-02-22T09:12:05.529Z,100767.56
2023-02-22T09:14:32.970Z,100765.13
2023-02-22T09:17:00.366Z,100765.06
2023-02-22T09:19:26.863Z,100768.16
2023-02-22T09:24:37.292Z,100773.63
2023-02-22T09:27:03.773Z,100774.31
2023-02-22T09:29:30.526Z,100778.97
2023-02-22T09:31:57.067Z,100778.56
2023-02-22T09:34:24.521Z,100784.13
2023-02-22T09:39:44.974Z,100781.16
2023-02-22T09:42:11.525Z,100790.31
2023-02-22T09:44:38.863Z,100786.13
2023-02-22T09:47:05.312Z,100785.34
2023-02-22T09:49:33.619Z,100786.53
2023-02-22T09:54:44.928Z,100783.31
2023-02-22T09:57:12.175Z,100792.44
2023-02-22T09:59:38.722Z,100803.56
2023-02-22T10:02:05.236Z,100811.44
2023-02-22T10:04:31.710Z,100805.72
2023-02-22T10:09:56.355Z,100819.66
2023-02-22T10:12:22.748Z,100824.31
2023-02-22T10:14:51.924Z,100826.25
2023-02-22T10:17:21.089Z,100821.50
2023-02-22T10:19:48.346Z,100829.78
2023-02-22T10:25:10.526Z,100830.25
2023-02-22T10:27:36.952Z,100829.81
2023-02-22T10:30:10.074Z,100823.38
2023-02-22T10:32:45.290Z,100836.09
2023-02-22T10:35:12.538Z,100834.19
2023-02-22T10:40:23.521Z,100840.09
2023-02-22T10:42:49.868Z,100839.69
2023-02-22T10:45:17.097Z,100835.25
2023-02-22T10:47:44.294Z,100838.88
2023-02-22T10:50:10.670Z,100841.56
2023-02-22T10:55:23.663Z,100837.22
2023-02-22T10:57:50.005Z,100841.16
2023-02-22T11:00:16.362Z,100827.31
2023-02-22T11:02:42.679Z,100832.47
2023-02-22T11:05:09.058Z,100830.06
2023-02-22T11:10:29.321Z,100831.09
2023-02-22T11:12:55.707Z,100830.25
2023-02-22T11:15:22.095Z,100825.13
2023-02-22T11:17:48.508Z,100824.66
2023-02-22T11:20:15.772Z,100825.06
2023-02-22T11:25:36.207Z,100831.84
2023-02-22T11:28:02.536Z,100829.44
2023-02-22T11:30:28.961Z,100832.22
2023-02-22T11:32:56.369Z,100827.38
2023-02-22T11:35:22.707Z,100840.94
2023-02-22T11:40:34.718Z,100836.97
2023-02-22T11:43:01.135Z,100831.38
2023-02-22T11:45:27.513Z,100830.97
2023-02-22T11:47:53.892Z,100836.09
2023-02-22T11:50:20.252Z,100833.78
2023-02-22T11:55:42.232Z,100830.97
2023-02-22T11:58:13.785Z,100841.56
2023-02-22T12:00:40.215Z,100847.19
2023-02-22T12:03:06.632Z,100836.50
2023-02-22T12:05:33.020Z,100846.44
2023-02-22T12:10:43.245Z,100837.03
2023-02-22T12:13:09.641Z,100837.78
2023-02-22T12:15:36.007Z,100831.88
2023-02-22T12:18:02.425Z,100835.88
2023-02-22T12:20:28.790Z,100840.19
2023-02-22T12:25:39.277Z,100829.25
2023-02-22T12:28:10.103Z,100823.06
2023-02-22T12:30:42.156Z,100826.53
2023-02-22T12:33:08.667Z,100824.63
2023-02-22T12:35:35.038Z,100832.59
2023-02-22T12:40:45.300Z,100835.03
2023-02-22T12:43:12.549Z,100842.63
2023-02-22T12:45:38.900Z,100844.63
2023-02-22T12:48:05.243Z,100844.25
2023-02-22T12:50:31.585Z,100845.81
2023-02-22T12:52:57.948Z,100844.66
2023-02-22T12:55:25.229Z,100846.22
2023-02-22T12:57:51.556Z,100849.44
2023-02-22T13:00:18.003Z,100856.56
2023-02-22T13:02:44.328Z,100856.19
2023-02-22T13:05:10.708Z,100856.56
2023-02-22T13:07:37.073Z,100862.06
2023-02-22T13:10:03.397Z,100865.63
2023-02-22T13:12:29.772Z,100865.31
2023-02-22T13:14:56.123Z,100874.06
2023-02-22T13:17:22.535Z,100878.81
2023-02-22T13:19:48.850Z,100872.84
2023-02-22T13:22:16.154Z,100874.84
2023-02-22T13:24:42.500Z,100883.53
2023-02-22T13:27:08.881Z,100880.25
2023-02-22T13:29:35.235Z,100877.50
2023-02-22T13:32:01.640Z,100880.69
2023-02-22T13:34:29.570Z,100887.00
2023-02-22T13:36:57.034Z,100879.09
2023-02-22T13:39:25.507Z,100877.84
2023-02-22T13:41:54.817Z,100875.06
2023-02-22T13:44:21.148Z,100869.13
2023-02-22T13:46:47.540Z,100883.00
2023-02-22T13:49:14.753Z,100883.03
2023-02-22T13:51:41.083Z,100881.41
2023-02-22T13:54:10.367Z,100879.47
2023-02-22T13:56:36.702Z,100883.41
2023-02-22T13:59:03.024Z,100890.19
2023-02-22T14:01:29.370Z,100886.19
2023-02-22T14:03:55.687Z,100894.91
2023-02-22T14:06:22.073Z,100895.31
2023-02-22T14:08:48.422Z,100901.28
2023-02-22T14:13:58.918Z,100901.03
2023-02-22T14:16:25.396Z,100904.63
2023-02-22T14:18:52.938Z,100901.47
2023-02-22T14:21:19.280Z,100903.41
2023-02-22T14:23:45.628Z,100903.03
2023-02-22T14:28:55.867Z,100908.97
2023-02-22T14:31:35.052Z,100908.97
2023-02-22T14:34:02.748Z,100907.38
2023-02-22T14:36:29.086Z,100906.22
2023-02-22T14:38:55.453Z,100904.63
2023-02-22T14:44:15.411Z,100910.19
2023-02-22T14:46:41.767Z,100913.72
2023-02-22T14:49:08.100Z,100910.97
2023-02-22T14:51:34.458Z,100912.59
2023-02-22T14:54:00.802Z,100911.75
2023-02-22T14:59:21.088Z,100915.34
2023-02-22T15:01:58.469Z,100915.34
2023-02-22T15:04:32.321Z,100907.78
2023-02-22T15:06:58.771Z,100912.13
2023-02-22T15:09:28.460Z,100917.28
2023-02-22T15:14:39.500Z,100919.28
2023-02-22T15:17:06.091Z,100914.50
2023-02-22T15:19:32.427Z,100923.25
2023-02-22T15:21:58.745Z,100921.66
2023-02-22T15:24:25.110Z,100916.91
2023-02-22T15:29:35.255Z,100920.44
2023-02-22T15:32:01.659Z,100928.75
2023-02-22T15:34:28.038Z,100935.50
2023-02-22T15:36:54.344Z,100930.75
2023-02-22T15:39:20.718Z,100931.94
2023-02-22T15:44:31.038Z,100933.53
2023-02-22T15:46:57.380Z,100932.75
2023-02-22T15:49:23.747Z,100935.97
2023-02-22T15:51:50.099Z,100933.16
2023-02-22T15:54:26.465Z,100932.72
2023-02-22T15:59:37.746Z,100938.69
2023-02-22T16:02:04.114Z,100932.75
2023-02-22T16:04:32.112Z,100937.47
2023-02-22T16:06:58.461Z,100941.84
2023-02-22T16:09:24.846Z,100944.91
2023-02-22T16:14:35.296Z,100944.66
2023-02-22T16:17:01.632Z,100948.63
2023-02-22T16:19:27.977Z,100956.59
2023-02-22T16:21:54.329Z,100957.78
2023-02-22T16:24:20.666Z,100953.03
2023-02-22T16:29:40.774Z,100957.09
2023-02-22T16:32:07.209Z,100963.00
2023-02-22T16:34:33.763Z,100967.41
2023-02-22T16:37:00.221Z,100972.97
2023-02-22T16:39:26.546Z,100966.19
2023-02-22T16:44:39.406Z,100971.00
2023-02-22T16:47:05.788Z,100973.75
2023-02-22T16:49:32.139Z,100974.56
2023-02-22T16:51:58.442Z,100974.53
2023-02-22T16:54:24.786Z,100969.78
2023-02-22T16:59:35.361Z,100978.97
2023-02-22T17:02:01.652Z,100982.16
2023-02-22T17:04:27.968Z,100981.31
2023-02-22T17:06:55.208Z,100980.91
2023-02-22T17:09:21.623Z,100984.94
2023-02-22T17:14:44.949Z,100982.16
2023-02-22T17:17:13.221Z,100980.94
2023-02-22T17:19:40.498Z,100986.13
2023-02-22T17:22:06.997Z,100982.97
2023-02-22T17:24:36.930Z,100981.34
2023-02-22T17:29:59.275Z,100980.22
2023-02-22T17:32:25.983Z,100980.59
2023-02-22T17:34:54.314Z,100981.41
2023-02-22T17:37:20.768Z,100981.03
2023-02-22T17:39:49.097Z,100984.19
2023-02-22T17:45:01.212Z,100984.97
2023-02-22T17:47:28.465Z,100984.97
2023-02-22T17:49:55.095Z,100984.94
2023-02-22T17:52:24.276Z,100988.09
2023-02-22T17:54:50.699Z,100984.53
2023-02-22T18:00:13.130Z,100988.09
2023-02-22T18:02:39.747Z,100991.66
2023-02-22T18:05:07.045Z,100986.50
2023-02-22T18:07:34.298Z,100990.06
2023-02-22T18:10:02.005Z,100996.06
2023-02-22T18:15:14.366Z,100992.44
2023-02-22T18:17:40.878Z,100995.25
2023-02-22T18:20:09.190Z,100998.41
2023-02-22T18:22:36.449Z,101000.41
2023-02-22T18:25:03.689Z,101001.19
2023-02-22T18:27:30.104Z,101004.41
2023-02-22T18:29:58.446Z,101005.16
2023-02-22T18:32:24.998Z,101004.00
2023-02-22T18:34:53.322Z,101002.38
2023-02-22T18:37:20.646Z,101010.75
2023-02-22T18:39:47.166Z,101013.53
2023-02-22T18:42:13.652Z,101013.94
2023-02-22T18:44:40.133Z,101010.38
2023-02-22T18:47:06.560Z,101013.94
2023-02-22T18:49:35.384Z,101011.53
2023-02-22T18:52:01.866Z,101012.88
2023-02-22T18:54:28.325Z,101004.53
2023-02-22T18:56:54.754Z,101013.66
2023-02-22T18:59:21.991Z,101016.03
2023-02-22T19:01:48.393Z,101006.81
2023-02-22T19:04:14.944Z,101008.44
2023-02-22T19:06:41.320Z,101002.88
2023-02-22T19:09:07.678Z,101003.72
2023-02-22T19:11:34.042Z,100999.75
2023-02-22T19:14:00.393Z,101000.19
2023-02-22T19:16:28.790Z,101000.19
2023-02-22T19:18:55.258Z,100996.53
2023-02-22T19:21:22.105Z,101009.59
2023-02-22T19:23:49.091Z,101000.09
2023-02-22T19:26:15.756Z,100995.38
2023-02-22T19:28:42.253Z,100997.75
2023-02-22T19:31:08.723Z,101000.09
2023-02-22T19:33:35.134Z,101007.69
2023-02-22T19:36:02.346Z,101009.25
2023-02-22T19:38:28.708Z,101006.06
2023-02-22T19:40:55.112Z,101008.00
2023-02-22T19:43:22.355Z,101013.50
2023-02-22T19:48:35.773Z,101011.16
2023-02-22T19:51:02.302Z,101012.38
2023-02-22T19:53:28.724Z,101015.91
2023-02-22T19:55:55.139Z,101014.31
2023-02-22T19:58:25.089Z,101017.94
2023-02-22T20:03:48.223Z,101026.25
2023-02-22T20:06:14.954Z,101023.88
2023-02-22T20:08:41.368Z,101019.50
2023-02-22T20:11:08.679Z,101018.69
2023-02-22T20:13:35.914Z,101026.69
2023-02-22T20:18:46.477Z,101024.34
2023-02-22T20:21:12.953Z,101022.34
2023-02-22T20:23:39.434Z,101021.50
2023-02-22T20:26:06.839Z,101024.34
2023-02-22T20:28:33.290Z,101025.97
2023-02-22T20:33:45.739Z,101025.13
2023-02-22T20:36:12.254Z,101025.44
2023-02-22T20:38:38.788Z,101031.00
2023-02-22T20:41:06.044Z,101027.41
2023-02-22T20:43:33.442Z,101027.81
2023-02-22T20:48:44.899Z,101027.00
2023-02-22T20:51:11.287Z,101017.09
2023-02-22T20:53:38.672Z,101024.25
2023-02-22T20:56:05.186Z,101026.63
2023-02-22T20:58:31.666Z,101025.44
2023-02-22T21:01:04.442Z,101028.66
2023-02-22T21:03:30.931Z,101025.63
2023-02-22T21:05:58.318Z,101022.53
2023-02-22T21:08:24.777Z,101022.53
2023-02-22T21:10:52.323Z,101021.06
2023-02-22T21:13:18.787Z,101012.47
2023-02-22T21:18:33.055Z,101017.28
2023-02-22T21:21:01.484Z,101020.38
2023-02-22T21:23:29.908Z,101021.16
2023-02-22T21:25:58.307Z,101018.31
2023-02-22T21:28:37.387Z,101027.75
2023-02-22T21:34:00.822Z,101032.84
2023-02-22T21:36:29.076Z,101033.28
2023-02-22T21:38:56.523Z,101032.06
2023-02-22T21:41:23.037Z,101038.88
2023-02-22T21:43:51.038Z,101031.16
2023-02-22T21:49:11.615Z,101029.59
2023-02-22T21:51:38.270Z,101023.31
2023-02-22T21:54:04.753Z,101025.72
2023-02-22T21:56:31.242Z,101034.09
2023-02-22T21:58:57.698Z,101022.88
2023-02-22T22:04:08.255Z,101030.00
2023-02-22T22:06:34.771Z,101028.09
2023-02-22T22:09:02.191Z,101019.38
2023-02-22T22:11:28.642Z,101034.38
2023-02-22T22:13:55.099Z,101016.41
2023-02-22T22:19:16.268Z,101028.88
2023-02-22T22:21:42.732Z,101032.00
2023-02-22T22:24:09.199Z,101034.44
2023-02-22T22:26:36.702Z,101038.78
2023-02-22T22:29:06.197Z,101028.91
2023-02-22T22:34:18.344Z,101028.38
2023-02-22T22:36:45.782Z,101033.56
2023-02-22T22:39:12.273Z,101025.56
2023-02-22T22:41:39.649Z,101026.28
2023-02-22T22:44:06.145Z,101028.34
2023-02-22T22:49:16.582Z,101029.81
2023-02-22T22:51:43.961Z,101028.19
2023-02-22T22:54:11.255Z,101028.59
2023-02-22T22:56:38.702Z,101029.00
2023-02-22T22:59:06.073Z,101026.22
2023-02-22T23:04:16.656Z,101029.75
2023-02-22T23:06:44.006Z,101028.22
2023-02-22T23:09:11.274Z,101030.97
2023-02-22T23:11:37.847Z,101031.34
2023-02-22T23:14:04.293Z,101034.09
2023-02-22T23:19:14.485Z,101032.16
2023-02-22T23:21:42.769Z,101036.50
2023-02-22T23:24:09.185Z,101036.47
2023-02-22T23:26:38.355Z,101043.13
2023-02-22T23:29:04.751Z,101031.97
2023-02-22T23:31:31.202Z,101028.41
2023-02-22T23:33:57.631Z,101027.66
2023-02-22T23:36:25.952Z,101024.56
2023-02-22T23:38:52.380Z,101024.91
2023-02-22T23:41:19.041Z,101028.88
2023-02-22T23:43:45.620Z,101026.13
2023-02-22T23:46:12.027Z,101022.56
2023-02-22T23:48:38.375Z,101011.47
2023-02-22T23:51:04.741Z,101013.84
2023-02-22T23:53:31.108Z,101026.09
2023-02-22T23:55:57.475Z,101029.31
2023-02-22T23:58:23.833Z,101033.59
